Time;durP1;ratioP1;P1;durP2;ratioP2;P2;SDS_P1;SDS_P2;PMS_P1;PMS_P2;Temp;Humidity;BMP_temperature;BMP_pressure;BME280_temperature;BME280_humidity;BME280_pressure;Samples;Min_cycle;Max_cycle;Signal;HPM_P1;HPM_P2
2023/01/26 00:00:46;;;;;;;27.93;16.30;;;;;;;;;;5018494;28;20198;-73
2023/01/26 00:03:13;;;;;;;27.90;17.13;;;;;;;;;;5020663;28;20212;-73
2023/01/26 00:05:40;;;;;;;31.57;17.90;;;;;;;;;;5020565;28;20310;-74
2023/01/26 00:08:07;;;;;;;26.97;16.33;;;;;;;;;;5019154;28;20855;-73
2023/01/26 00:10:35;;;;;;;26.53;16.57;;;;;;;;;;5022282;28;20179;-73
2023/01/26 00:13:02;;;;;;;27.83;16.10;;;;;;;;;;5014584;28;20214;-73
2023/01/26 00:15:28;;;;;;;31.67;17.93;;;;;;;;;;5016626;28;20210;-73
2023/01/26 00:17:54;;;;;;;30.67;18.00;;;;;;;;;;5018414;28;20188;-73
2023/01/26 00:20:20;;;;;;;31.57;19.23;;;;;;;;;;5012956;28;20820;-73
2023/01/26 00:22:46;;;;;;;31.90;17.77;;;;;;;;;;5019693;28;20189;-73
2023/01/26 00:25:13;;;;;;;30.90;18.60;;;;;;;;;;5018886;28;20223;-73
2023/01/26 00:27:39;;;;;;;32.50;19.00;;;;;;;;;;5018583;28;20179;-73
2023/01/26 00:30:06;;;;;;;31.00;18.80;;;;;;;;;;5017996;28;20203;-73
2023/01/26 00:32:34;;;;;;;31.60;18.63;;;;;;;;;;5011907;28;20225;-73
2023/01/26 00:35:00;;;;;;;32.80;19.10;;;;;;;;;;5023453;28;20264;-73
2023/01/26 00:37:26;;;;;;;31.23;18.83;;;;;;;;;;5016026;28;20281;-73
2023/01/26 00:39:52;;;;;;;32.00;18.03;;;;;;;;;;5018855;28;20609;-74
2023/01/26 00:42:20;;;;;;;29.17;17.27;;;;;;;;;;5017486;28;20193;-73
2023/01/26 00:44:46;;;;;;;27.17;16.50;;;;;;;;;;5017672;28;20307;-73
2023/01/26 00:47:13;;;;;;;28.87;17.07;;;;;;;;;;5015178;28;20233;-73
2023/01/26 00:49:39;;;;;;;30.80;17.60;;;;;;;;;;5016017;28;20657;-73
2023/01/26 00:52:06;;;;;;;29.47;18.17;;;;;;;;;;5016738;28;20209;-73
2023/01/26 00:54:32;;;;;;;33.87;18.07;;;;;;;;;;5019361;28;20210;-73
2023/01/26 00:56:58;;;;;;;28.73;17.00;;;;;;;;;;4998765;28;20182;-73
2023/01/26 00:59:25;;;;;;;29.30;16.73;;;;;;;;;;5015107;28;20204;-74
2023/01/26 01:01:52;;;;;;;28.67;16.70;;;;;;;;;;5021077;28;20185;-73
2023/01/26 01:04:18;;;;;;;32.80;18.50;;;;;;;;;;5022176;28;20229;-73
2023/01/26 01:06:44;;;;;;;31.63;18.50;;;;;;;;;;5023138;28;20175;-73
2023/01/26 01:09:10;;;;;;;32.03;18.97;;;;;;;;;;5018138;28;20301;-73
2023/01/26 01:11:36;;;;;;;30.47;17.93;;;;;;;;;;5018958;28;20198;-73
2023/01/26 01:14:03;;;;;;;32.20;18.77;;;;;;;;;;5019331;28;20179;-73
2023/01/26 01:16:29;;;;;;;33.90;20.00;;;;;;;;;;5013429;28;20258;-73
2023/01/26 01:18:56;;;;;;;30.77;18.27;;;;;;;;;;5017145;28;20187;-73
2023/01/26 01:21:23;;;;;;;33.20;19.87;;;;;;;;;;5017689;28;20245;-74
2023/01/26 01:23:50;;;;;;;33.20;19.53;;;;;;;;;;5020190;28;20294;-73
2023/01/26 01:26:17;;;;;;;33.70;19.10;;;;;;;;;;5016528;28;20183;-73
2023/01/26 01:28:43;;;;;;;33.37;18.47;;;;;;;;;;5003376;28;20293;-72
2023/01/26 01:31:10;;;;;;;31.97;18.20;;;;;;;;;;5000582;28;20863;-72
2023/01/26 01:33:37;;;;;;;33.87;19.13;;;;;;;;;;5018925;28;20183;-72
2023/01/26 01:36:05;;;;;;;31.33;18.23;;;;;;;;;;4998618;28;20222;-72
2023/01/26 01:38:32;;;;;;;33.83;20.33;;;;;;;;;;5016892;28;20190;-72
2023/01/26 01:40:58;;;;;;;30.20;18.60;;;;;;;;;;5017685;28;20183;-72
2023/01/26 01:43:25;;;;;;;34.20;19.83;;;;;;;;;;5017435;28;20182;-72
2023/01/26 01:45:52;;;;;;;34.73;20.17;;;;;;;;;;5001713;28;20890;-72
2023/01/26 01:48:57;;;;;;;35.83;20.87;;;;;;;;;;5021153;28;20221;-72
2023/01/26 01:51:30;;;;;;;32.13;18.83;;;;;;;;;;4944284;28;20250;-74
2023/01/26 01:53:57;;;;;;;34.40;20.43;;;;;;;;;;4943416;28;20196;-74
2023/01/26 01:56:27;;;;;;;33.57;19.83;;;;;;;;;;4989415;28;20210;-74
2023/01/26 01:58:57;;;;;;;35.00;20.53;;;;;;;;;;5016444;28;20182;-74
2023/01/26 02:01:24;;;;;;;31.43;18.73;;;;;;;;;;5017822;28;20297;-74
2023/01/26 02:03:54;;;;;;;38.00;22.30;;;;;;;;;;5024796;28;20191;-74
2023/01/26 02:06:28;;;;;;;38.30;21.97;;;;;;;;;;5025722;28;20194;-71
2023/01/26 02:08:56;;;;;;;34.97;20.90;;;;;;;;;;4993945;28;20202;-71
2023/01/26 02:11:27;;;;;;;38.90;22.70;;;;;;;;;;5021503;28;20190;-71
2023/01/26 02:13:56;;;;;;;41.43;22.70;;;;;;;;;;5006478;28;20201;-71
2023/01/26 02:16:22;;;;;;;36.60;21.23;;;;;;;;;;5024369;28;20720;-71
2023/01/26 02:18:48;;;;;;;37.00;21.23;;;;;;;;;;5005066;28;20213;-71
2023/01/26 02:21:19;;;;;;;37.30;21.57;;;;;;;;;;5027945;28;20199;-72
2023/01/26 02:24:05;;;;;;;33.77;20.50;;;;;;;;;;5023205;28;20187;-71
2023/01/26 02:26:33;;;;;;;37.40;21.40;;;;;;;;;;5018375;28;20210;-72
2023/01/26 02:29:00;;;;;;;37.73;20.87;;;;;;;;;;5021282;28;20597;-72
2023/01/26 02:31:27;;;;;;;36.47;20.43;;;;;;;;;;5002601;28;20190;-71
2023/01/26 02:33:54;;;;;;;36.97;21.90;;;;;;;;;;5002063;28;20678;-72
2023/01/26 02:36:25;;;;;;;37.20;21.73;;;;;;;;;;5020471;28;20692;-71
2023/01/26 02:38:55;;;;;;;40.03;22.20;;;;;;;;;;5021519;28;20194;-72
2023/01/26 02:44:08;;;;;;;32.97;19.00;;;;;;;;;;5017870;28;20545;-71
2023/01/26 02:46:34;;;;;;;32.53;19.70;;;;;;;;;;5006099;28;20187;-71
2023/01/26 02:51:46;;;;;;;37.27;20.43;;;;;;;;;;5022485;28;20186;-72
2023/01/26 02:55:21;;;;;;;40.30;21.60;;;;;;;;;;5021733;28;20218;-72
2023/01/26 02:56:59;;;;;;;36.07;20.40;;;;;;;;;;5019104;28;20224;-72
2023/01/26 02:59:26;;;;;;;38.93;21.73;;;;;;;;;;5008530;28;20540;-72
2023/01/26 03:01:53;;;;;;;36.80;21.17;;;;;;;;;;5022918;28;20269;-71
2023/01/26 03:04:20;;;;;;;33.63;19.83;;;;;;;;;;5019684;28;20218;-72
2023/01/26 03:06:46;;;;;;;34.20;20.60;;;;;;;;;;5020389;28;20194;-72
2023/01/26 03:09:12;;;;;;;35.13;19.73;;;;;;;;;;5021066;28;20596;-72
2023/01/26 03:11:43;;;;;;;32.93;18.77;;;;;;;;;;5020735;28;20186;-72
2023/01/26 03:14:10;;;;;;;36.17;21.03;;;;;;;;;;5022687;28;20210;-72
2023/01/26 03:16:37;;;;;;;32.40;19.13;;;;;;;;;;5014992;28;20799;-71
2023/01/26 03:29:50;;;;;;;34.73;19.50;;;;;;;;;;5004309;28;20256;-71
2023/01/26 03:32:16;;;;;;;35.90;20.17;;;;;;;;;;5022632;28;20183;-71
2023/01/26 03:34:42;;;;;;;30.97;17.77;;;;;;;;;;5016577;28;20679;-72
2023/01/26 03:37:09;;;;;;;32.33;18.97;;;;;;;;;;5018422;28;20183;-72
2023/01/26 03:56:24;;;;;;;28.67;16.93;;;;;;;;;;5016819;28;20555;-72
2023/01/26 03:58:55;;;;;;;33.43;18.03;;;;;;;;;;5038062;28;20278;-72
2023/01/26 04:01:27;;;;;;;31.23;18.17;;;;;;;;;;5015945;28;20211;-71
2023/01/26 04:09:29;;;;;;;30.83;16.83;;;;;;;;;;5025557;28;20206;-72
2023/01/26 04:11:57;;;;;;;32.07;17.70;;;;;;;;;;5014985;28;20705;-72
2023/01/26 04:22:43;;;;;;;29.63;17.43;;;;;;;;;;5038404;28;20186;-72
2023/01/26 04:25:14;;;;;;;29.70;17.13;;;;;;;;;;5014642;28;20288;-72
2023/01/26 04:27:41;;;;;;;32.10;17.83;;;;;;;;;;5001857;28;20215;-72
2023/01/26 04:30:09;;;;;;;28.20;17.17;;;;;;;;;;5016122;28;20222;-71
2023/01/26 04:32:35;;;;;;;30.77;17.23;;;;;;;;;;5012605;28;20187;-71
2023/01/26 04:35:02;;;;;;;34.73;17.23;;;;;;;;;;5023378;28;20264;-72
2023/01/26 04:37:30;;;;;;;28.20;16.73;;;;;;;;;;5031084;28;20178;-72
2023/01/26 04:39:57;;;;;;;29.17;17.30;;;;;;;;;;5016643;28;20187;-72
2023/01/26 04:42:24;;;;;;;27.83;16.90;;;;;;;;;;5020269;28;20686;-71
2023/01/26 04:44:51;;;;;;;31.53;17.00;;;;;;;;;;5017069;28;20202;-72
2023/01/26 04:47:17;;;;;;;31.83;16.87;;;;;;;;;;5014764;28;20605;-72
2023/01/26 04:49:44;;;;;;;30.90;16.90;;;;;;;;;;5032915;28;20237;-72
2023/01/26 04:52:11;;;;;;;30.77;17.40;;;;;;;;;;5001432;28;20595;-72
2023/01/26 04:54:37;;;;;;;30.60;17.13;;;;;;;;;;5019428;28;20776;-72
2023/01/26 04:57:03;;;;;;;29.57;16.53;;;;;;;;;;4997863;28;20194;-72
2023/01/26 04:59:30;;;;;;;28.53;17.03;;;;;;;;;;5017698;28;20194;-72
2023/01/26 05:01:59;;;;;;;27.70;15.47;;;;;;;;;;5015700;28;20240;-72
2023/01/26 05:04:26;;;;;;;27.53;16.33;;;;;;;;;;5015473;28;20194;-72
2023/01/26 05:06:53;;;;;;;26.30;15.87;;;;;;;;;;4999769;28;20195;-72
2023/01/26 05:09:21;;;;;;;23.53;14.20;;;;;;;;;;5017920;28;20227;-72
2023/01/26 05:12:32;;;;;;;27.87;15.13;;;;;;;;;;5010758;28;20870;-74
2023/01/26 05:15:02;;;;;;;26.23;14.90;;;;;;;;;;5015756;28;20214;-74
2023/01/26 05:17:43;;;;;;;23.43;13.60;;;;;;;;;;5015711;28;20690;-74
2023/01/26 05:20:28;;;;;;;26.33;14.63;;;;;;;;;;5017472;28;20193;-74
2023/01/26 05:23:05;;;;;;;23.07;13.67;;;;;;;;;;5025836;28;20183;-71
2023/01/26 05:25:49;;;;;;;21.57;13.03;;;;;;;;;;5017117;28;20272;-74
2023/01/26 05:28:16;;;;;;;20.93;12.90;;;;;;;;;;5015953;28;20662;-74
2023/01/26 05:30:42;;;;;;;21.50;12.50;;;;;;;;;;5021312;28;20417;-74
2023/01/26 05:33:10;;;;;;;20.30;12.23;;;;;;;;;;5026184;28;20175;-74
2023/01/26 05:35:36;;;;;;;20.43;12.53;;;;;;;;;;5019040;28;20711;-74
2023/01/26 05:38:04;;;;;;;19.00;11.60;;;;;;;;;;5021354;28;20663;-71
2023/01/26 05:40:32;;;;;;;21.07;11.80;;;;;;;;;;5022480;28;20206;-74
2023/01/26 05:42:59;;;;;;;19.57;12.63;;;;;;;;;;5006175;28;20179;-72
2023/01/26 05:45:44;;;;;;;20.60;13.88;;;;;;;;;;5021963;28;20447;-74
2023/01/26 05:48:13;;;;;;;19.57;12.50;;;;;;;;;;5019546;28;20198;-75
2023/01/26 05:50:40;;;;;;;19.17;11.37;;;;;;;;;;5006382;28;20222;-75
2023/01/26 05:53:18;;;;;;;19.00;11.93;;;;;;;;;;5021829;28;20178;-71
2023/01/26 05:55:45;;;;;;;20.17;11.83;;;;;;;;;;5008786;28;20667;-72
2023/01/26 05:58:12;;;;;;;20.70;13.20;;;;;;;;;;5003333;28;20244;-71
2023/01/26 06:00:40;;;;;;;21.50;12.97;;;;;;;;;;4992711;28;20646;-72
2023/01/26 06:03:12;;;;;;;21.63;13.20;;;;;;;;;;5019243;28;20195;-72
2023/01/26 06:05:38;;;;;;;22.90;13.50;;;;;;;;;;5017705;28;20199;-72
2023/01/26 06:08:12;;;;;;;22.80;13.68;;;;;;;;;;5011083;28;20805;-71
2023/01/26 06:11:03;;;;;;;20.17;12.63;;;;;;;;;;5017865;28;20182;-72
2023/01/26 06:13:52;;;;;;;20.30;12.70;;;;;;;;;;5032515;28;20193;-74
2023/01/26 06:16:23;;;;;;;22.03;13.13;;;;;;;;;;5027319;28;20178;-72
2023/01/26 06:18:50;;;;;;;21.85;14.65;;;;;;;;;;5006960;28;20459;-72
2023/01/26 06:21:17;;;;;;;21.75;14.98;;;;;;;;;;4985123;28;20435;-75
2023/01/26 06:23:44;;;;;;;24.50;14.80;;;;;;;;;;5036628;28;20726;-74
2023/01/26 06:26:11;;;;;;;23.63;14.20;;;;;;;;;;4991666;28;20615;-74
2023/01/26 06:28:39;;;;;;;23.77;14.33;;;;;;;;;;5021518;28;20229;-74
2023/01/26 06:31:07;;;;;;;23.10;14.27;;;;;;;;;;5021465;28;20205;-74
2023/01/26 06:33:35;;;;;;;19.77;12.37;;;;;;;;;;5024461;28;20182;-74
2023/01/26 06:36:02;;;;;;;20.80;11.77;;;;;;;;;;5020313;28;20225;-73
2023/01/26 06:38:28;;;;;;;25.90;14.23;;;;;;;;;;5006759;28;20198;-71
2023/01/26 06:40:59;;;;;;;25.60;14.77;;;;;;;;;;5024359;28;20190;-74
2023/01/26 06:43:25;;;;;;;26.63;14.93;;;;;;;;;;5021094;28;20236;-76
2023/01/26 06:45:51;;;;;;;28.63;15.07;;;;;;;;;;5007933;28;20214;-73
2023/01/26 06:48:19;;;;;;;28.30;15.50;;;;;;;;;;5004151;28;20187;-77
2023/01/26 06:50:45;;;;;;;26.50;14.73;;;;;;;;;;5001862;28;20665;-73
2023/01/26 06:53:25;;;;;;;24.83;14.43;;;;;;;;;;5024808;28;20190;-73
2023/01/26 06:56:05;;;;;;;30.23;15.53;;;;;;;;;;5016234;28;20230;-73
2023/01/26 06:58:35;;;;;;;27.30;16.57;;;;;;;;;;5018739;28;20198;-71
2023/01/26 07:01:08;;;;;;;28.73;16.77;;;;;;;;;;5013384;28;20186;-71
2023/01/26 07:03:35;;;;;;;26.33;15.53;;;;;;;;;;5035080;28;20183;-72
2023/01/26 07:06:01;;;;;;;24.13;14.57;;;;;;;;;;5019434;28;20977;-71
2023/01/26 07:08:27;;;;;;;21.73;13.90;;;;;;;;;;5019122;28;21685;-71
2023/01/26 07:10:53;;;;;;;23.20;16.00;;;;;;;;;;5014396;28;21021;-71
2023/01/26 07:13:20;;;;;;;20.40;13.90;;;;;;;;;;5017474;28;20175;-71
2023/01/26 07:15:47;;;;;;;20.33;12.80;;;;;;;;;;5019309;28;20210;-71
2023/01/26 07:18:13;;;;;;;20.43;12.10;;;;;;;;;;5019833;28;20179;-70
2023/01/26 07:20:39;;;;;;;18.63;11.83;;;;;;;;;;5018068;28;20215;-70
2023/01/26 07:23:05;;;;;;;19.93;11.07;;;;;;;;;;5018042;28;20203;-70
2023/01/26 07:25:31;;;;;;;15.77;10.87;;;;;;;;;;5016088;28;20198;-70
2023/01/26 07:27:58;;;;;;;17.60;11.30;;;;;;;;;;5015041;28;20183;-71
2023/01/26 07:30:24;;;;;;;20.00;12.53;;;;;;;;;;5014070;28;20891;-70
2023/01/26 07:32:50;;;;;;;24.57;13.40;;;;;;;;;;5022429;28;20183;-71
2023/01/26 07:35:17;;;;;;;18.13;11.43;;;;;;;;;;5019702;28;20736;-71
2023/01/26 07:37:43;;;;;;;18.33;11.53;;;;;;;;;;5017239;28;20542;-70
2023/01/26 07:40:10;;;;;;;17.43;10.53;;;;;;;;;;5015008;28;20190;-70
2023/01/26 07:42:36;;;;;;;20.87;12.73;;;;;;;;;;5017732;28;20179;-72
2023/01/26 07:45:18;;;;;;;19.77;11.37;;;;;;;;;;5015605;28;20224;-71
2023/01/26 07:47:44;;;;;;;19.60;12.50;;;;;;;;;;5016494;28;20635;-71
2023/01/26 07:50:12;;;;;;;20.33;11.73;;;;;;;;;;5018517;28;20309;-71
2023/01/26 07:52:38;;;;;;;19.07;12.10;;;;;;;;;;5018505;28;20182;-71
2023/01/26 07:55:04;;;;;;;18.87;12.63;;;;;;;;;;5018217;28;20564;-71
2023/01/26 07:57:30;;;;;;;18.33;11.53;;;;;;;;;;5017167;28;20175;-71
2023/01/26 07:59:57;;;;;;;17.87;11.60;;;;;;;;;;5018393;28;20187;-71
2023/01/26 08:02:23;;;;;;;18.27;11.50;;;;;;;;;;5016448;28;20183;-71
2023/01/26 08:04:49;;;;;;;16.57;10.83;;;;;;;;;;5010457;28;20199;-71
2023/01/26 08:07:15;;;;;;;16.73;11.00;;;;;;;;;;5017626;28;20186;-71
2023/01/26 08:09:41;;;;;;;16.50;11.20;;;;;;;;;;5018707;28;20214;-71
2023/01/26 08:12:08;;;;;;;16.80;9.87;;;;;;;;;;5019073;28;20183;-71
2023/01/26 08:14:34;;;;;;;14.87;10.07;;;;;;;;;;5020026;28;20583;-71
2023/01/26 08:17:01;;;;;;;15.80;9.60;;;;;;;;;;5018618;28;20175;-71
2023/01/26 08:19:27;;;;;;;15.77;10.33;;;;;;;;;;5017307;28;20195;-70
2023/01/26 08:21:53;;;;;;;16.57;10.63;;;;;;;;;;5001700;28;20252;-71
2023/01/26 08:24:20;;;;;;;16.53;10.40;;;;;;;;;;5016983;28;21083;-71
2023/01/26 08:26:46;;;;;;;17.97;10.40;;;;;;;;;;5019335;28;20186;-71
2023/01/26 08:29:12;;;;;;;16.43;9.93;;;;;;;;;;5015900;28;20579;-72
2023/01/26 08:31:38;;;;;;;18.50;10.90;;;;;;;;;;5017087;28;20180;-72
2023/01/26 08:34:04;;;;;;;15.70;10.43;;;;;;;;;;5015751;28;20174;-72
2023/01/26 08:36:30;;;;;;;14.23;9.80;;;;;;;;;;5019560;28;20190;-71
2023/01/26 08:38:57;;;;;;;14.57;9.27;;;;;;;;;;5017873;28;20285;-72
2023/01/26 08:41:23;;;;;;;15.90;10.47;;;;;;;;;;5015189;28;20287;-72
2023/01/26 08:43:51;;;;;;;13.50;9.67;;;;;;;;;;5019224;28;20704;-71
2023/01/26 08:46:17;;;;;;;14.27;9.33;;;;;;;;;;5014496;28;20698;-74
2023/01/26 08:48:44;;;;;;;14.07;9.27;;;;;;;;;;5018576;28;20210;-72
2023/01/26 08:51:10;;;;;;;12.80;9.33;;;;;;;;;;5019127;28;20187;-73
2023/01/26 08:53:36;;;;;;;13.77;9.63;;;;;;;;;;5016060;28;20333;-71
2023/01/26 08:56:03;;;;;;;14.37;9.20;;;;;;;;;;5013924;28;20194;-71
2023/01/26 08:58:30;;;;;;;16.20;9.63;;;;;;;;;;5012571;28;20202;-71
2023/01/26 09:00:56;;;;;;;13.43;9.40;;;;;;;;;;5017573;28;20187;-72
2023/01/26 09:03:22;;;;;;;17.30;10.37;;;;;;;;;;5016279;28;20190;-71
2023/01/26 09:05:49;;;;;;;16.57;10.23;;;;;;;;;;5011313;28;20198;-72
2023/01/26 09:08:15;;;;;;;14.53;9.63;;;;;;;;;;5014044;28;20370;-71
2023/01/26 09:10:43;;;;;;;13.13;9.33;;;;;;;;;;5018744;28;20186;-72
2023/01/26 09:13:10;;;;;;;14.83;10.30;;;;;;;;;;5017690;28;20183;-74
2023/01/26 09:15:37;;;;;;;16.57;10.27;;;;;;;;;;5014929;28;20206;-72
2023/01/26 09:18:04;;;;;;;16.80;10.80;;;;;;;;;;5019630;28;20856;-72
2023/01/26 09:20:30;;;;;;;15.63;10.13;;;;;;;;;;5020466;28;20178;-72
2023/01/26 09:22:56;;;;;;;14.23;10.53;;;;;;;;;;5021379;28;20182;-71
2023/01/26 09:25:22;;;;;;;15.37;10.47;;;;;;;;;;5021494;28;20217;-71
2023/01/26 09:27:48;;;;;;;15.07;10.40;;;;;;;;;;5020731;28;20187;-71
2023/01/26 09:30:14;;;;;;;16.10;10.13;;;;;;;;;;5021008;28;20210;-72
2023/01/26 09:32:41;;;;;;;15.67;10.77;;;;;;;;;;5017884;28;20183;-72
2023/01/26 09:35:10;;;;;;;15.57;10.43;;;;;;;;;;5018061;28;20207;-71
2023/01/26 09:37:37;;;;;;;14.07;10.30;;;;;;;;;;5019916;28;20183;-72
2023/01/26 09:40:04;;;;;;;15.43;10.33;;;;;;;;;;5017306;28;20190;-72
2023/01/26 09:42:42;;;;;;;14.47;9.93;;;;;;;;;;5019882;28;20912;-72
2023/01/26 09:45:12;;;;;;;12.57;9.23;;;;;;;;;;5021427;28;20198;-71
2023/01/26 09:47:44;;;;;;;14.23;10.10;;;;;;;;;;5021768;28;20195;-72
2023/01/26 09:50:13;;;;;;;16.67;10.97;;;;;;;;;;5005022;28;20243;-71
2023/01/26 09:52:52;;;;;;;16.30;9.63;;;;;;;;;;5018823;28;20215;-72
2023/01/26 09:55:20;;;;;;;16.77;10.87;;;;;;;;;;5016533;28;20218;-71
2023/01/26 09:57:46;;;;;;;17.50;11.07;;;;;;;;;;5023174;28;20183;-72
2023/01/26 10:00:19;;;;;;;15.87;10.37;;;;;;;;;;5021167;28;20202;-72
2023/01/26 10:02:49;;;;;;;15.40;10.63;;;;;;;;;;5020828;28;20346;-72
2023/01/26 10:05:22;;;;;;;14.27;10.23;;;;;;;;;;5022233;28;20693;-72
2023/01/26 10:07:48;;;;;;;15.60;10.93;;;;;;;;;;5020622;28;20210;-71
2023/01/26 10:10:21;;;;;;;16.17;11.27;;;;;;;;;;5017366;28;20221;-72
2023/01/26 10:12:52;;;;;;;16.37;11.17;;;;;;;;;;5019238;28;20186;-72
2023/01/26 10:15:27;;;;;;;16.57;10.37;;;;;;;;;;5015456;28;20208;-72
2023/01/26 10:17:54;;;;;;;16.30;10.97;;;;;;;;;;5017438;28;20253;-72
2023/01/26 10:20:27;;;;;;;14.73;10.97;;;;;;;;;;5016907;28;20209;-72
2023/01/26 10:22:55;;;;;;;14.97;10.80;;;;;;;;;;5014321;28;20782;-72
2023/01/26 10:25:34;;;;;;;16.07;11.03;;;;;;;;;;5010784;28;20210;-72
2023/01/26 10:28:02;;;;;;;16.63;11.40;;;;;;;;;;5019134;28;20198;-72
2023/01/26 10:30:28;;;;;;;17.33;11.93;;;;;;;;;;5018673;28;20679;-72
2023/01/26 10:32:55;;;;;;;16.60;11.87;;;;;;;;;;5014982;28;20175;-72
2023/01/26 10:35:24;;;;;;;17.83;12.10;;;;;;;;;;5022173;28;20222;-72
2023/01/26 10:37:51;;;;;;;16.17;11.80;;;;;;;;;;5017216;28;20209;-72
2023/01/26 10:40:18;;;;;;;18.43;12.80;;;;;;;;;;5019386;28;20583;-72
2023/01/26 10:42:57;;;;;;;17.70;11.90;;;;;;;;;;5027278;28;20823;-72
2023/01/26 10:45:31;;;;;;;18.30;12.20;;;;;;;;;;5018229;28;20265;-72
2023/01/26 10:48:04;;;;;;;17.80;12.20;;;;;;;;;;5018937;28;20233;-72
2023/01/26 10:50:30;;;;;;;17.67;12.10;;;;;;;;;;5017032;28;20229;-72
2023/01/26 10:52:58;;;;;;;18.13;12.27;;;;;;;;;;5017647;28;20199;-72
2023/01/26 10:55:24;;;;;;;17.97;12.30;;;;;;;;;;5015761;28;20239;-72
2023/01/26 10:57:51;;;;;;;17.27;11.97;;;;;;;;;;5018200;28;20199;-72
2023/01/26 11:00:20;;;;;;;17.30;12.03;;;;;;;;;;5017366;28;20190;-72
2023/01/26 11:02:51;;;;;;;18.33;12.47;;;;;;;;;;5009628;28;20209;-71
2023/01/26 11:05:22;;;;;;;18.43;12.47;;;;;;;;;;5017304;28;20218;-72
2023/01/26 11:07:49;;;;;;;16.70;11.83;;;;;;;;;;5019567;28;20296;-72
2023/01/26 11:10:21;;;;;;;18.30;13.00;;;;;;;;;;5020249;28;20217;-71
2023/01/26 11:12:47;;;;;;;16.50;12.10;;;;;;;;;;5017507;28;20171;-72
2023/01/26 11:15:21;;;;;;;16.60;12.50;;;;;;;;;;5020774;28;20210;-73
2023/01/26 11:17:55;;;;;;;18.60;13.27;;;;;;;;;;5014413;28;20176;-72
2023/01/26 11:20:35;;;;;;;19.03;13.00;;;;;;;;;;5018220;28;20186;-72
2023/01/26 11:23:17;;;;;;;20.90;13.73;;;;;;;;;;5019050;28;20185;-72
2023/01/26 11:25:52;;;;;;;20.60;14.57;;;;;;;;;;5021740;28;20217;-73
2023/01/26 11:28:31;;;;;;;19.70;13.80;;;;;;;;;;5022086;28;20186;-73
2023/01/26 11:31:17;;;;;;;20.83;13.93;;;;;;;;;;5021615;28;20187;-75
2023/01/26 11:33:52;;;;;;;17.73;12.50;;;;;;;;;;4991785;28;20769;-73
2023/01/26 11:36:33;;;;;;;20.03;13.67;;;;;;;;;;5020396;28;20190;-76
2023/01/26 11:38:59;;;;;;;18.10;13.23;;;;;;;;;;5020764;28;20198;-76
2023/01/26 11:41:41;;;;;;;18.23;13.47;;;;;;;;;;5020381;28;20302;-77
2023/01/26 11:44:13;;;;;;;18.67;13.00;;;;;;;;;;5038862;28;20193;-73
2023/01/26 11:46:42;;;;;;;20.00;13.37;;;;;;;;;;5013003;28;20210;-80
2023/01/26 11:49:23;;;;;;;19.33;13.70;;;;;;;;;;5023681;28;20815;-76
2023/01/26 11:51:57;;;;;;;18.97;12.73;;;;;;;;;;5022616;28;20179;-74
2023/01/26 11:54:24;;;;;;;18.83;12.67;;;;;;;;;;5019374;28;20214;-76
2023/01/26 11:57:03;;;;;;;18.60;13.20;;;;;;;;;;5018156;28;20860;-76
2023/01/26 11:59:29;;;;;;;19.77;13.60;;;;;;;;;;5012346;28;20269;-75
2023/01/26 12:02:14;;;;;;;17.83;13.27;;;;;;;;;;5025496;28;20205;-79
2023/01/26 12:04:44;;;;;;;17.00;13.17;;;;;;;;;;5020997;28;20210;-76
2023/01/26 12:07:22;;;;;;;18.37;12.87;;;;;;;;;;5020054;28;20625;-76
2023/01/26 12:09:49;;;;;;;17.83;12.93;;;;;;;;;;5016196;28;20229;-79
2023/01/26 12:12:41;;;;;;;20.77;13.80;;;;;;;;;;5023318;28;20179;-79
2023/01/26 12:15:28;;;;;;;17.60;13.00;;;;;;;;;;5026194;28;20202;-77
2023/01/26 12:17:59;;;;;;;18.07;13.80;;;;;;;;;;5017795;28;20285;-78
2023/01/26 12:20:31;;;;;;;19.60;12.43;;;;;;;;;;5016346;28;20217;-76
2023/01/26 12:22:58;;;;;;;16.10;12.10;;;;;;;;;;5020682;28;20720;-76
2023/01/26 12:25:35;;;;;;;17.80;13.17;;;;;;;;;;5006377;28;20210;-75
2023/01/26 12:28:12;;;;;;;17.77;13.13;;;;;;;;;;5016244;28;20657;-74
2023/01/26 12:30:57;;;;;;;16.20;12.37;;;;;;;;;;5021895;28;20310;-74
2023/01/26 12:33:27;;;;;;;18.47;12.90;;;;;;;;;;5021141;28;20290;-74
2023/01/26 12:35:56;;;;;;;16.00;12.17;;;;;;;;;;5020716;28;20210;-74
2023/01/26 12:38:28;;;;;;;17.67;13.40;;;;;;;;;;5037500;28;20204;-74
2023/01/26 12:41:02;;;;;;;15.23;11.40;;;;;;;;;;5016341;28;20189;-74
2023/01/26 12:43:44;;;;;;;14.50;11.30;;;;;;;;;;5020642;28;20200;-73
2023/01/26 12:46:10;;;;;;;16.50;12.13;;;;;;;;;;5016420;28;20233;-74
2023/01/26 12:48:39;;;;;;;14.43;11.30;;;;;;;;;;5016556;28;20198;-74
2023/01/26 12:51:09;;;;;;;14.80;11.20;;;;;;;;;;5017438;28;20200;-74
2023/01/26 12:53:54;;;;;;;16.00;11.57;;;;;;;;;;5015411;28;20193;-74
2023/01/26 12:56:34;;;;;;;16.17;12.40;;;;;;;;;;5020082;28;21534;-74
2023/01/26 12:59:06;;;;;;;14.50;10.13;;;;;;;;;;5020213;28;20200;-74
2023/01/26 13:01:37;;;;;;;13.33;10.27;;;;;;;;;;5023965;28;20182;-74
2023/01/26 13:04:07;;;;;;;15.53;10.87;;;;;;;;;;5024610;28;20182;-74
2023/01/26 13:06:33;;;;;;;12.83;10.33;;;;;;;;;;5038630;28;20677;-74
2023/01/26 13:09:03;;;;;;;13.77;10.37;;;;;;;;;;5019374;28;20217;-74
2023/01/26 13:11:38;;;;;;;16.30;10.90;;;;;;;;;;5019181;28;20232;-74
2023/01/26 13:14:23;;;;;;;12.93;10.23;;;;;;;;;;5021135;28;20194;-74
2023/01/26 13:16:49;;;;;;;14.27;11.00;;;;;;;;;;5023206;28;20260;-74
2023/01/26 13:19:34;;;;;;;12.27;9.83;;;;;;;;;;5019181;28;20230;-74
2023/01/26 13:22:01;;;;;;;13.30;10.23;;;;;;;;;;5021003;28;21145;-74
2023/01/26 13:24:27;;;;;;;17.40;10.63;;;;;;;;;;5018938;28;20356;-74
2023/01/26 13:26:54;;;;;;;14.23;9.97;;;;;;;;;;5023342;28;20183;-74
2023/01/26 13:29:31;;;;;;;14.47;11.00;;;;;;;;;;5024258;28;20582;-75
2023/01/26 13:31:58;;;;;;;15.47;12.00;;;;;;;;;;5021681;28;20179;-74
2023/01/26 13:34:35;;;;;;;17.20;11.83;;;;;;;;;;5016580;28;20677;-74
2023/01/26 13:37:20;;;;;;;18.57;11.67;;;;;;;;;;5020625;28;20190;-74
2023/01/26 13:39:49;;;;;;;17.67;11.03;;;;;;;;;;5023923;28;20183;-74
2023/01/26 13:42:27;;;;;;;15.40;10.83;;;;;;;;;;5024067;28;20186;-74
2023/01/26 13:44:58;;;;;;;16.20;11.30;;;;;;;;;;5017777;28;20199;-74
2023/01/26 13:47:27;;;;;;;14.60;10.87;;;;;;;;;;5024385;28;20653;-74
2023/01/26 13:49:53;;;;;;;14.83;11.17;;;;;;;;;;5017152;28;20668;-74
2023/01/26 13:52:24;;;;;;;15.27;10.83;;;;;;;;;;5023096;28;20618;-74
2023/01/26 13:54:52;;;;;;;15.40;11.53;;;;;;;;;;5019722;28;20245;-74
2023/01/26 13:57:22;;;;;;;16.23;11.27;;;;;;;;;;5021247;28;20228;-74
2023/01/26 13:59:50;;;;;;;13.53;10.20;;;;;;;;;;5024169;28;20213;-74
2023/01/26 14:02:23;;;;;;;14.77;10.87;;;;;;;;;;5019555;28;20293;-74
2023/01/26 14:04:54;;;;;;;13.33;10.60;;;;;;;;;;5023569;28;20210;-74
2023/01/26 14:07:24;;;;;;;14.17;10.57;;;;;;;;;;5020749;28;20213;-74
2023/01/26 14:09:51;;;;;;;14.57;10.80;;;;;;;;;;5022408;28;20235;-77
2023/01/26 14:12:26;;;;;;;13.60;10.77;;;;;;;;;;5026997;28;20184;-76
2023/01/26 14:14:54;;;;;;;13.47;9.70;;;;;;;;;;5029887;28;20209;-75
2023/01/26 14:17:27;;;;;;;13.60;10.47;;;;;;;;;;5026323;28;20635;-75
2023/01/26 14:19:54;;;;;;;12.93;10.13;;;;;;;;;;5023537;28;20190;-74
2023/01/26 14:22:20;;;;;;;13.17;10.40;;;;;;;;;;5024362;28;20738;-75
2023/01/26 14:24:50;;;;;;;14.93;10.60;;;;;;;;;;5023554;28;20221;-75
2023/01/26 14:27:26;;;;;;;15.03;10.43;;;;;;;;;;5021662;28;20720;-75
2023/01/26 14:29:52;;;;;;;12.57;9.50;;;;;;;;;;5020946;28;20252;-74
2023/01/26 14:32:18;;;;;;;14.63;9.93;;;;;;;;;;5024079;28;20249;-75
2023/01/26 14:34:52;;;;;;;14.03;10.33;;;;;;;;;;5029414;28;20207;-73
2023/01/26 14:37:18;;;;;;;11.97;8.93;;;;;;;;;;5022548;28;20866;-72
2023/01/26 14:39:46;;;;;;;11.07;8.60;;;;;;;;;;5027868;28;20190;-72
2023/01/26 14:42:19;;;;;;;12.27;8.27;;;;;;;;;;5022136;28;20218;-75
2023/01/26 14:44:46;;;;;;;11.90;8.60;;;;;;;;;;5026068;28;20209;-73
2023/01/26 14:47:12;;;;;;;14.80;8.63;;;;;;;;;;5015677;28;20180;-72
2023/01/26 14:49:53;;;;;;;12.13;8.77;;;;;;;;;;5021916;28;20496;-72
2023/01/26 14:52:25;;;;;;;15.10;8.20;;;;;;;;;;5019050;28;20186;-72
2023/01/26 14:54:53;;;;;;;12.10;9.07;;;;;;;;;;5018095;28;20226;-72
2023/01/26 14:57:23;;;;;;;13.30;9.87;;;;;;;;;;5015897;28;20302;-71
2023/01/26 14:59:51;;;;;;;12.23;8.70;;;;;;;;;;5020402;28;20191;-71
2023/01/26 15:02:19;;;;;;;12.50;9.43;;;;;;;;;;5017343;28;20183;-71
2023/01/26 15:04:47;;;;;;;12.03;9.00;;;;;;;;;;5020956;28;20328;-71
2023/01/26 15:07:33;;;;;;;11.43;8.80;;;;;;;;;;5016809;28;20186;-71
2023/01/26 15:09:59;;;;;;;12.37;9.07;;;;;;;;;;5022500;28;20237;-71
2023/01/26 15:12:26;;;;;;;10.67;8.17;;;;;;;;;;5017000;28;20634;-70
2023/01/26 15:14:56;;;;;;;12.30;8.60;;;;;;;;;;5019300;28;20192;-71
2023/01/26 15:17:29;;;;;;;11.97;8.83;;;;;;;;;;5022173;28;20262;-71
2023/01/26 15:19:56;;;;;;;12.33;8.90;;;;;;;;;;5016002;28;20187;-70